sensor_id;sensor_type;location;lat;lon;timestamp;temperature;humidity
31003;DHT22;23051;-6.372;106.786;2024-03-08T00:01:32;27.50;90.10
31003;DHT22;23051;-6.372;106.786;2024-03-08T00:03:33;27.50;90.00
31003;DHT22;23051;-6.372;106.786;2024-03-08T00:05:35;27.50;90.00
31003;DHT22;23051;-6.372;106.786;2024-03-08T00:07:37;27.50;90.00
31003;DHT22;23051;-6.372;106.786;2024-03-08T00:09:38;27.50;90.00
31003;DHT22;23051;-6.372;106.786;2024-03-08T00:11:39;27.60;90.00
31003;DHT22;23051;-6.372;106.786;2024-03-08T00:13:40;27.60;90.00
31003;DHT22;23051;-6.372;106.786;2024-03-08T00:15:42;27.60;90.00
31003;DHT22;23051;-6.372;106.786;2024-03-08T00:17:44;27.60;89.90
31003;DHT22;23051;-6.372;106.786;2024-03-08T00:19:45;27.60;90.30
31003;DHT22;23051;-6.372;106.786;2024-03-08T00:21:47;27.70;89.90
31003;DHT22;23051;-6.372;106.786;2024-03-08T00:23:48;27.70;89.80
31003;DHT22;23051;-6.372;106.786;2024-03-08T00:25:49;27.70;89.80
31003;DHT22;23051;-6.372;106.786;2024-03-08T00:27:50;27.70;89.70
31003;DHT22;23051;-6.372;106.786;2024-03-08T00:29:51;27.70;89.70
31003;DHT22;23051;-6.372;106.786;2024-03-08T00:31:53;27.70;89.70
31003;DHT22;23051;-6.372;106.786;2024-03-08T00:33:54;27.70;89.70
31003;DHT22;23051;-6.372;106.786;2024-03-08T00:35:55;27.70;89.70
31003;DHT22;23051;-6.372;106.786;2024-03-08T00:37:56;27.80;89.70
31003;DHT22;23051;-6.372;106.786;2024-03-08T00:39:57;27.80;89.60
31003;DHT22;23051;-6.372;106.786;2024-03-08T00:41:59;27.80;89.50
31003;DHT22;23051;-6.372;106.786;2024-03-08T00:44:00;27.90;89.50
31003;DHT22;23051;-6.372;106.786;2024-03-08T00:46:04;27.90;89.40
31003;DHT22;23051;-6.372;106.786;2024-03-08T00:48:05;27.90;89.40
31003;DHT22;23051;-6.372;106.786;2024-03-08T00:50:06;27.90;89.30
31003;DHT22;23051;-6.372;106.786;2024-03-08T00:52:08;27.90;89.20
31003;DHT22;23051;-6.372;106.786;2024-03-08T00:54:10;28.00;89.20
31003;DHT22;23051;-6.372;106.786;2024-03-08T00:56:11;28.00;89.20
31003;DHT22;23051;-6.372;106.786;2024-03-08T00:58:12;28.00;89.20
31003;DHT22;23051;-6.372;106.786;2024-03-08T01:00:14;28.00;89.10
31003;DHT22;23051;-6.372;106.786;2024-03-08T01:02:15;28.00;89.00
31003;DHT22;23051;-6.372;106.786;2024-03-08T01:04:19;28.10;89.00
31003;DHT22;23051;-6.372;106.786;2024-03-08T01:06:21;28.10;89.00
31003;DHT22;23051;-6.372;106.786;2024-03-08T01:08:22;28.20;88.90
31003;DHT22;23051;-6.372;106.786;2024-03-08T01:10:24;28.20;88.80
31003;DHT22;23051;-6.372;106.786;2024-03-08T01:12:25;28.20;88.80
31003;DHT22;23051;-6.372;106.786;2024-03-08T01:14:26;28.20;88.60
31003;DHT22;23051;-6.372;106.786;2024-03-08T01:16:27;28.30;88.70
31003;DHT22;23051;-6.372;106.786;2024-03-08T01:18:29;28.30;88.60
31003;DHT22;23051;-6.372;106.786;2024-03-08T01:20:30;28.30;88.50
31003;DHT22;23051;-6.372;106.786;2024-03-08T01:22:31;28.40;88.50
31003;DHT22;23051;-6.372;106.786;2024-03-08T01:24:32;28.40;88.40
31003;DHT22;23051;-6.372;106.786;2024-03-08T01:26:35;28.40;88.20
31003;DHT22;23051;-6.372;106.786;2024-03-08T01:28:36;28.50;88.20
31003;DHT22;23051;-6.372;106.786;2024-03-08T01:30:37;28.50;88.10
31003;DHT22;23051;-6.372;106.786;2024-03-08T01:32:39;28.50;88.10
31003;DHT22;23051;-6.372;106.786;2024-03-08T01:34:40;28.60;88.10
31003;DHT22;23051;-6.372;106.786;2024-03-08T01:36:41;28.60;87.90
31003;DHT22;23051;-6.372;106.786;2024-03-08T01:38:42;28.70;87.90
31003;DHT22;23051;-6.372;106.786;2024-03-08T01:40:44;28.70;87.80
31003;DHT22;23051;-6.372;106.786;2024-03-08T01:42:45;28.80;87.80
31003;DHT22;23051;-6.372;106.786;2024-03-08T01:44:46;28.90;87.70
31003;DHT22;23051;-6.372;106.786;2024-03-08T01:46:47;28.90;87.60
31003;DHT22;23051;-6.372;106.786;2024-03-08T01:48:49;28.90;87.50
31003;DHT22;23051;-6.372;106.786;2024-03-08T01:50:51;29.00;87.50
31003;DHT22;23051;-6.372;106.786;2024-03-08T01:52:53;29.00;87.30
31003;DHT22;23051;-6.372;106.786;2024-03-08T01:54:56;29.00;87.20
31003;DHT22;23051;-6.372;106.786;2024-03-08T01:56:58;29.10;87.20
31003;DHT22;23051;-6.372;106.786;2024-03-08T01:58:59;29.10;87.20
31003;DHT22;23051;-6.372;106.786;2024-03-08T02:01:01;29.10;87.10
31003;DHT22;23051;-6.372;106.786;2024-03-08T02:03:04;29.20;87.10
31003;DHT22;23051;-6.372;106.786;2024-03-08T02:05:06;29.20;87.00
31003;DHT22;23051;-6.372;106.786;2024-03-08T02:07:07;29.30;87.00
31003;DHT22;23051;-6.372;106.786;2024-03-08T02:09:08;29.30;86.90
31003;DHT22;23051;-6.372;106.786;2024-03-08T02:11:10;29.30;86.80
31003;DHT22;23051;-6.372;106.786;2024-03-08T02:13:12;29.40;86.80
31003;DHT22;23051;-6.372;106.786;2024-03-08T02:15:13;29.40;86.60
31003;DHT22;23051;-6.372;106.786;2024-03-08T02:17:15;29.40;86.50
31003;DHT22;23051;-6.372;106.786;2024-03-08T02:19:16;29.50;86.50
31003;DHT22;23051;-6.372;106.786;2024-03-08T02:21:18;29.50;86.40
31003;DHT22;23051;-6.372;106.786;2024-03-08T02:23:19;29.60;86.40
31003;DHT22;23051;-6.372;106.786;2024-03-08T02:25:20;29.70;86.30
31003;DHT22;23051;-6.372;106.786;2024-03-08T02:27:25;29.70;86.10
31003;DHT22;23051;-6.372;106.786;2024-03-08T02:29:26;29.80;86.10
31003;DHT22;23051;-6.372;106.786;2024-03-08T02:31:27;29.80;86.00
31003;DHT22;23051;-6.372;106.786;2024-03-08T02:33:28;29.80;85.90
31003;DHT22;23051;-6.372;106.786;2024-03-08T02:35:29;29.90;85.90
31003;DHT22;23051;-6.372;106.786;2024-03-08T02:37:31;29.90;85.80
31003;DHT22;23051;-6.372;106.786;2024-03-08T02:39:32;29.90;85.80
31003;DHT22;23051;-6.372;106.786;2024-03-08T02:41:33;30.00;85.80
31003;DHT22;23051;-6.372;106.786;2024-03-08T02:43:34;30.00;85.60
31003;DHT22;23051;-6.372;106.786;2024-03-08T02:45:36;30.00;85.50
31003;DHT22;23051;-6.372;106.786;2024-03-08T02:47:37;30.10;85.60
31003;DHT22;23051;-6.372;106.786;2024-03-08T02:49:38;30.10;85.50
31003;DHT22;23051;-6.372;106.786;2024-03-08T02:51:39;30.20;85.50
31003;DHT22;23051;-6.372;106.786;2024-03-08T02:53:41;30.20;85.40
31003;DHT22;23051;-6.372;106.786;2024-03-08T02:55:43;30.20;85.30
31003;DHT22;23051;-6.372;106.786;2024-03-08T02:57:44;30.20;85.30
31003;DHT22;23051;-6.372;106.786;2024-03-08T02:59:47;30.30;85.30
31003;DHT22;23051;-6.372;106.786;2024-03-08T03:01:49;30.30;85.30
31003;DHT22;23051;-6.372;106.786;2024-03-08T03:03:50;30.40;85.20
31003;DHT22;23051;-6.372;106.786;2024-03-08T03:05:51;30.40;85.10
31003;DHT22;23051;-6.372;106.786;2024-03-08T03:07:52;30.40;85.10
31003;DHT22;23051;-6.372;106.786;2024-03-08T03:09:53;30.50;85.10
31003;DHT22;23051;-6.372;106.786;2024-03-08T03:11:55;30.50;85.10
31003;DHT22;23051;-6.372;106.786;2024-03-08T03:13:57;30.60;85.00
31003;DHT22;23051;-6.372;106.786;2024-03-08T03:15:58;30.60;84.90
31003;DHT22;23051;-6.372;106.786;2024-03-08T03:17:59;30.70;84.70
31003;DHT22;23051;-6.372;106.786;2024-03-08T03:20:01;30.70;84.50
31003;DHT22;23051;-6.372;106.786;2024-03-08T03:22:09;30.80;84.50
31003;DHT22;23051;-6.372;106.786;2024-03-08T03:24:11;30.90;84.30
31003;DHT22;23051;-6.372;106.786;2024-03-08T03:26:12;30.90;84.20
31003;DHT22;23051;-6.372;106.786;2024-03-08T03:28:14;30.90;84.10
31003;DHT22;23051;-6.372;106.786;2024-03-08T03:30:18;31.00;84.10
31003;DHT22;23051;-6.372;106.786;2024-03-08T03:32:22;31.00;84.00
31003;DHT22;23051;-6.372;106.786;2024-03-08T03:34:24;31.00;84.10
31003;DHT22;23051;-6.372;106.786;2024-03-08T03:36:25;31.10;84.00
31003;DHT22;23051;-6.372;106.786;2024-03-08T03:38:26;31.10;83.70
31003;DHT22;23051;-6.372;106.786;2024-03-08T03:40:28;31.20;83.80
31003;DHT22;23051;-6.372;106.786;2024-03-08T03:42:30;31.30;83.80
31003;DHT22;23051;-6.372;106.786;2024-03-08T03:44:31;31.30;83.70
31003;DHT22;23051;-6.372;106.786;2024-03-08T03:46:34;31.40;83.60
31003;DHT22;23051;-6.372;106.786;2024-03-08T03:48:36;31.40;83.40
31003;DHT22;23051;-6.372;106.786;2024-03-08T03:50:37;31.50;84.20
31003;DHT22;23051;-6.372;106.786;2024-03-08T03:52:39;31.50;83.50
31003;DHT22;23051;-6.372;106.786;2024-03-08T03:54:40;31.50;83.40
31003;DHT22;23051;-6.372;106.786;2024-03-08T03:56:41;31.60;83.40
31003;DHT22;23051;-6.372;106.786;2024-03-08T03:58:42;31.60;83.30
31003;DHT22;23051;-6.372;106.786;2024-03-08T04:00:43;31.60;83.30
31003;DHT22;23051;-6.372;106.786;2024-03-08T04:02:44;31.60;83.20
31003;DHT22;23051;-6.372;106.786;2024-03-08T04:04:47;31.60;83.20
31003;DHT22;23051;-6.372;106.786;2024-03-08T04:06:48;31.70;83.20
31003;DHT22;23051;-6.372;106.786;2024-03-08T04:08:52;31.80;83.20
31003;DHT22;23051;-6.372;106.786;2024-03-08T04:10:53;31.80;83.10
31003;DHT22;23051;-6.372;106.786;2024-03-08T04:12:54;31.80;83.00
31003;DHT22;23051;-6.372;106.786;2024-03-08T04:14:57;31.90;83.00
31003;DHT22;23051;-6.372;106.786;2024-03-08T04:16:58;31.90;82.90
31003;DHT22;23051;-6.372;106.786;2024-03-08T04:18:59;31.90;82.80
31003;DHT22;23051;-6.372;106.786;2024-03-08T04:21:04;32.00;82.80
31003;DHT22;23051;-6.372;106.786;2024-03-08T04:23:09;32.00;82.80
31003;DHT22;23051;-6.372;106.786;2024-03-08T04:25:10;32.00;82.80
31003;DHT22;23051;-6.372;106.786;2024-03-08T04:27:11;32.00;82.80
31003;DHT22;23051;-6.372;106.786;2024-03-08T04:29:12;32.00;82.90
31003;DHT22;23051;-6.372;106.786;2024-03-08T04:31:15;32.00;82.80
31003;DHT22;23051;-6.372;106.786;2024-03-08T04:33:16;32.10;82.90
31003;DHT22;23051;-6.372;106.786;2024-03-08T04:35:18;32.10;82.80
31003;DHT22;23051;-6.372;106.786;2024-03-08T04:37:20;32.20;82.80
31003;DHT22;23051;-6.372;106.786;2024-03-08T04:39:25;32.10;82.70
31003;DHT22;23051;-6.372;106.786;2024-03-08T04:41:28;32.10;82.60
31003;DHT22;23051;-6.372;106.786;2024-03-08T04:43:31;32.20;82.80
31003;DHT22;23051;-6.372;106.786;2024-03-08T04:45:32;32.10;82.80
31003;DHT22;23051;-6.372;106.786;2024-03-08T04:47:34;32.10;82.90
31003;DHT22;23051;-6.372;106.786;2024-03-08T04:49:37;32.10;83.00
31003;DHT22;23051;-6.372;106.786;2024-03-08T04:51:38;32.00;83.30
31003;DHT22;23051;-6.372;106.786;2024-03-08T04:53:41;31.80;83.60
31003;DHT22;23051;-6.372;106.786;2024-03-08T04:55:42;31.70;84.00
31003;DHT22;23051;-6.372;106.786;2024-03-08T04:57:45;31.50;84.20
31003;DHT22;23051;-6.372;106.786;2024-03-08T04:59:47;31.40;84.50
31003;DHT22;23051;-6.372;106.786;2024-03-08T05:01:48;31.30;84.80
31003;DHT22;23051;-6.372;106.786;2024-03-08T05:03:49;31.30;84.90
31003;DHT22;23051;-6.372;106.786;2024-03-08T05:05:51;31.40;84.90
31003;DHT22;23051;-6.372;106.786;2024-03-08T05:07:53;31.50;84.70
31003;DHT22;23051;-6.372;106.786;2024-03-08T05:09:54;31.60;84.40
31003;DHT22;23051;-6.372;106.786;2024-03-08T05:11:57;31.80;84.10
31003;DHT22;23051;-6.372;106.786;2024-03-08T05:14:00;32.00;83.50
31003;DHT22;23051;-6.372;106.786;2024-03-08T05:16:01;32.30;83.00
31003;DHT22;23051;-6.372;106.786;2024-03-08T05:18:03;32.40;82.60
31003;DHT22;23051;-6.372;106.786;2024-03-08T05:20:04;32.50;82.20
31003;DHT22;23051;-6.372;106.786;2024-03-08T05:22:08;32.70;82.00
31003;DHT22;23051;-6.372;106.786;2024-03-08T05:24:10;32.80;81.70
31003;DHT22;23051;-6.372;106.786;2024-03-08T05:26:11;33.00;81.30
31003;DHT22;23051;-6.372;106.786;2024-03-08T05:28:12;33.20;80.90
31003;DHT22;23051;-6.372;106.786;2024-03-08T05:30:14;33.30;80.60
31003;DHT22;23051;-6.372;106.786;2024-03-08T05:32:15;33.50;80.50
31003;DHT22;23051;-6.372;106.786;2024-03-08T05:34:16;33.50;80.10
31003;DHT22;23051;-6.372;106.786;2024-03-08T05:36:18;33.60;80.00
31003;DHT22;23051;-6.372;106.786;2024-03-08T05:38:19;33.70;80.00
31003;DHT22;23051;-6.372;106.786;2024-03-08T05:40:21;33.70;79.90
31003;DHT22;23051;-6.372;106.786;2024-03-08T05:42:23;33.80;79.80
31003;DHT22;23051;-6.372;106.786;2024-03-08T05:44:24;33.90;79.60
31003;DHT22;23051;-6.372;106.786;2024-03-08T05:46:25;34.10;79.40
31003;DHT22;23051;-6.372;106.786;2024-03-08T05:48:26;34.20;79.10
31003;DHT22;23051;-6.372;106.786;2024-03-08T05:50:28;34.30;78.90
31003;DHT22;23051;-6.372;106.786;2024-03-08T05:52:29;34.40;78.70
31003;DHT22;23051;-6.372;106.786;2024-03-08T05:54:31;34.50;78.60
31003;DHT22;23051;-6.372;106.786;2024-03-08T05:56:33;34.50;78.60
31003;DHT22;23051;-6.372;106.786;2024-03-08T05:58:34;34.50;78.60
31003;DHT22;23051;-6.372;106.786;2024-03-08T06:00:36;34.70;78.60
31003;DHT22;23051;-6.372;106.786;2024-03-08T06:02:37;34.70;78.30
31003;DHT22;23051;-6.372;106.786;2024-03-08T06:04:41;34.80;78.20
31003;DHT22;23051;-6.372;106.786;2024-03-08T06:06:43;35.00;78.10
31003;DHT22;23051;-6.372;106.786;2024-03-08T06:08:44;35.00;77.70
31003;DHT22;23051;-6.372;106.786;2024-03-08T06:10:45;35.10;77.50
31003;DHT22;23051;-6.372;106.786;2024-03-08T06:12:54;35.20;77.40
31003;DHT22;23051;-6.372;106.786;2024-03-08T06:14:55;35.30;77.30
31003;DHT22;23051;-6.372;106.786;2024-03-08T06:16:56;35.30;77.30
31003;DHT22;23051;-6.372;106.786;2024-03-08T06:18:58;35.20;77.40
31003;DHT22;23051;-6.372;106.786;2024-03-08T06:20:59;35.30;77.60
31003;DHT22;23051;-6.372;106.786;2024-03-08T06:23:01;35.30;77.70
31003;DHT22;23051;-6.372;106.786;2024-03-08T06:25:02;35.20;77.70
31003;DHT22;23051;-6.372;106.786;2024-03-08T06:27:03;35.10;78.10
31003;DHT22;23051;-6.372;106.786;2024-03-08T06:29:05;34.80;78.40
31003;DHT22;23051;-6.372;106.786;2024-03-08T06:31:07;34.70;79.00
31003;DHT22;23051;-6.372;106.786;2024-03-08T06:33:08;34.30;79.80
31003;DHT22;23051;-6.372;106.786;2024-03-08T06:35:11;34.00;80.60
31003;DHT22;23051;-6.372;106.786;2024-03-08T06:37:12;33.70;81.30
31003;DHT22;23051;-6.372;106.786;2024-03-08T06:39:15;33.50;81.90
31003;DHT22;23051;-6.372;106.786;2024-03-08T06:41:16;33.40;83.10
31003;DHT22;23051;-6.372;106.786;2024-03-08T06:43:17;33.40;82.30
31003;DHT22;23051;-6.372;106.786;2024-03-08T06:45:19;33.50;82.20
31003;DHT22;23051;-6.372;106.786;2024-03-08T06:47:21;33.50;82.00
31003;DHT22;23051;-6.372;106.786;2024-03-08T06:49:26;33.50;81.80
31003;DHT22;23051;-6.372;106.786;2024-03-08T06:51:27;33.50;81.70
31003;DHT22;23051;-6.372;106.786;2024-03-08T06:53:29;33.30;81.90
31003;DHT22;23051;-6.372;106.786;2024-03-08T06:55:30;33.10;82.40
31003;DHT22;23051;-6.372;106.786;2024-03-08T06:57:31;33.00;82.90
31003;DHT22;23051;-6.372;106.786;2024-03-08T06:59:33;32.80;83.30
31003;DHT22;23051;-6.372;106.786;2024-03-08T07:01:36;32.70;83.50
31003;DHT22;23051;-6.372;106.786;2024-03-08T07:03:37;32.60;83.60
31003;DHT22;23051;-6.372;106.786;2024-03-08T07:07:58;32.50;83.90
31003;DHT22;23051;-6.372;106.786;2024-03-08T07:10:00;32.50;84.00
31003;DHT22;23051;-6.372;106.786;2024-03-08T07:12:01;32.40;84.10
31003;DHT22;23051;-6.372;106.786;2024-03-08T07:14:03;32.40;84.20
31003;DHT22;23051;-6.372;106.786;2024-03-08T07:16:06;32.50;84.20
31003;DHT22;23051;-6.372;106.786;2024-03-08T07:18:08;32.50;84.00
31003;DHT22;23051;-6.372;106.786;2024-03-08T07:20:10;32.50;83.80
31003;DHT22;23051;-6.372;106.786;2024-03-08T07:22:13;32.40;83.90
31003;DHT22;23051;-6.372;106.786;2024-03-08T07:24:14;32.50;83.90
31003;DHT22;23051;-6.372;106.786;2024-03-08T07:26:17;32.50;83.80
31003;DHT22;23051;-6.372;106.786;2024-03-08T07:28:19;32.60;83.60
31003;DHT22;23051;-6.372;106.786;2024-03-08T07:30:25;32.70;83.50
31003;DHT22;23051;-6.372;106.786;2024-03-08T07:32:44;32.80;83.10
31003;DHT22;23051;-6.372;106.786;2024-03-08T07:34:47;32.70;83.10
31003;DHT22;23051;-6.372;106.786;2024-03-08T07:36:49;32.70;83.30
31003;DHT22;23051;-6.372;106.786;2024-03-08T07:38:51;32.70;83.20
31003;DHT22;23051;-6.372;106.786;2024-03-08T07:40:52;32.80;83.20
31003;DHT22;23051;-6.372;106.786;2024-03-08T07:42:53;32.80;82.90
31003;DHT22;23051;-6.372;106.786;2024-03-08T07:44:55;32.80;82.90
31003;DHT22;23051;-6.372;106.786;2024-03-08T07:46:56;32.70;82.90
31003;DHT22;23051;-6.372;106.786;2024-03-08T07:48:57;32.70;83.00
31003;DHT22;23051;-6.372;106.786;2024-03-08T07:50:58;32.80;83.10
31003;DHT22;23051;-6.372;106.786;2024-03-08T07:52:59;32.80;83.10
31003;DHT22;23051;-6.372;106.786;2024-03-08T07:55:02;32.70;83.00
31003;DHT22;23051;-6.372;106.786;2024-03-08T07:57:06;32.80;83.10
31003;DHT22;23051;-6.372;106.786;2024-03-08T07:59:08;32.80;82.90
31003;DHT22;23051;-6.372;106.786;2024-03-08T08:01:15;32.80;82.90
31003;DHT22;23051;-6.372;106.786;2024-03-08T08:03:16;32.80;83.00
31003;DHT22;23051;-6.372;106.786;2024-03-08T08:05:21;32.70;83.10
31003;DHT22;23051;-6.372;106.786;2024-03-08T08:07:22;32.70;83.10
31003;DHT22;23051;-6.372;106.786;2024-03-08T08:09:24;32.70;83.30
31003;DHT22;23051;-6.372;106.786;2024-03-08T08:11:35;32.70;83.40
31003;DHT22;23051;-6.372;106.786;2024-03-08T08:13:36;32.60;83.40
31003;DHT22;23051;-6.372;106.786;2024-03-08T08:15:37;32.50;83.50
31003;DHT22;23051;-6.372;106.786;2024-03-08T08:17:39;32.50;83.60
31003;DHT22;23051;-6.372;106.786;2024-03-08T08:19:43;32.50;83.60
31003;DHT22;23051;-6.372;106.786;2024-03-08T08:21:44;32.50;83.60
31003;DHT22;23051;-6.372;106.786;2024-03-08T08:23:46;32.50;83.60
31003;DHT22;23051;-6.372;106.786;2024-03-08T08:25:47;32.50;83.60
31003;DHT22;23051;-6.372;106.786;2024-03-08T08:27:50;32.50;83.60
31003;DHT22;23051;-6.372;106.786;2024-03-08T08:29:51;32.50;83.50
31003;DHT22;23051;-6.372;106.786;2024-03-08T08:31:52;32.50;83.60
31003;DHT22;23051;-6.372;106.786;2024-03-08T08:33:54;32.40;83.70
31003;DHT22;23051;-6.372;106.786;2024-03-08T08:35:58;32.40;83.80
31003;DHT22;23051;-6.372;106.786;2024-03-08T08:38:00;32.40;83.80
31003;DHT22;23051;-6.372;106.786;2024-03-08T08:40:01;32.30;83.90
31003;DHT22;23051;-6.372;106.786;2024-03-08T08:42:06;32.30;84.00
31003;DHT22;23051;-6.372;106.786;2024-03-08T08:44:09;32.20;84.30
31003;DHT22;23051;-6.372;106.786;2024-03-08T08:46:12;32.10;84.60
31003;DHT22;23051;-6.372;106.786;2024-03-08T08:48:16;32.00;84.50
31003;DHT22;23051;-6.372;106.786;2024-03-08T08:50:18;32.00;84.60
31003;DHT22;23051;-6.372;106.786;2024-03-08T08:52:23;32.00;84.70
31003;DHT22;23051;-6.372;106.786;2024-03-08T08:54:24;32.00;84.80
31003;DHT22;23051;-6.372;106.786;2024-03-08T08:56:28;32.00;84.80
31003;DHT22;23051;-6.372;106.786;2024-03-08T08:58:31;31.90;84.80
31003;DHT22;23051;-6.372;106.786;2024-03-08T09:00:33;31.80;84.90
31003;DHT22;23051;-6.372;106.786;2024-03-08T09:02:35;31.80;85.20
31003;DHT22;23051;-6.372;106.786;2024-03-08T09:04:38;31.70;85.30
31003;DHT22;23051;-6.372;106.786;2024-03-08T09:06:39;31.70;85.40
31003;DHT22;23051;-6.372;106.786;2024-03-08T09:08:44;31.70;85.40
31003;DHT22;23051;-6.372;106.786;2024-03-08T09:10:46;31.70;85.30
31003;DHT22;23051;-6.372;106.786;2024-03-08T09:12:49;31.70;85.30
31003;DHT22;23051;-6.372;106.786;2024-03-08T09:14:50;31.70;85.40
31003;DHT22;23051;-6.372;106.786;2024-03-08T09:16:51;31.60;85.40
31003;DHT22;23051;-6.372;106.786;2024-03-08T09:18:53;31.60;85.40
31003;DHT22;23051;-6.372;106.786;2024-03-08T09:20:54;31.60;85.40
31003;DHT22;23051;-6.372;106.786;2024-03-08T09:22:55;31.60;85.40
31003;DHT22;23051;-6.372;106.786;2024-03-08T09:24:56;31.60;85.50
31003;DHT22;23051;-6.372;106.786;2024-03-08T09:26:58;31.50;85.40
31003;DHT22;23051;-6.372;106.786;2024-03-08T09:29:02;31.60;86.40
31003;DHT22;23051;-6.372;106.786;2024-03-08T09:31:03;31.40;85.50
31003;DHT22;23051;-6.372;106.786;2024-03-08T09:33:06;31.40;85.90
31003;DHT22;23051;-6.372;106.786;2024-03-08T09:35:07;31.30;86.10
31003;DHT22;23051;-6.372;106.786;2024-03-08T09:37:08;31.10;86.30
31003;DHT22;23051;-6.372;106.786;2024-03-08T09:39:10;31.00;86.70
31003;DHT22;23051;-6.372;106.786;2024-03-08T09:41:17;30.80;87.80
31003;DHT22;23051;-6.372;106.786;2024-03-08T09:43:18;30.80;87.40
31003;DHT22;23051;-6.372;106.786;2024-03-08T09:45:20;30.70;87.50
31003;DHT22;23051;-6.372;106.786;2024-03-08T09:47:22;30.60;87.70
31003;DHT22;23051;-6.372;106.786;2024-03-08T09:49:27;30.50;87.90
31003;DHT22;23051;-6.372;106.786;2024-03-08T09:51:29;30.40;88.00
31003;DHT22;23051;-6.372;106.786;2024-03-08T09:53:32;30.30;88.20
31003;DHT22;23051;-6.372;106.786;2024-03-08T09:55:33;30.30;88.50
31003;DHT22;23051;-6.372;106.786;2024-03-08T09:57:37;30.10;88.60
31003;DHT22;23051;-6.372;106.786;2024-03-08T09:59:38;30.10;88.70
31003;DHT22;23051;-6.372;106.786;2024-03-08T10:01:39;30.00;88.80
31003;DHT22;23051;-6.372;106.786;2024-03-08T10:03:41;30.00;88.80
31003;DHT22;23051;-6.372;106.786;2024-03-08T10:05:45;30.00;89.00
31003;DHT22;23051;-6.372;106.786;2024-03-08T10:07:47;29.90;89.00
31003;DHT22;23051;-6.372;106.786;2024-03-08T10:09:48;29.90;89.10
31003;DHT22;23051;-6.372;106.786;2024-03-08T10:11:58;29.90;89.10
31003;DHT22;23051;-6.372;106.786;2024-03-08T10:13:59;29.80;89.10
31003;DHT22;23051;-6.372;106.786;2024-03-08T10:16:01;29.90;89.20
31003;DHT22;23051;-6.372;106.786;2024-03-08T10:18:02;29.80;89.30
31003;DHT22;23051;-6.372;106.786;2024-03-08T10:20:04;29.70;89.30
31003;DHT22;23051;-6.372;106.786;2024-03-08T10:22:15;29.70;90.10
31003;DHT22;23051;-6.372;106.786;2024-03-08T10:24:17;29.70;89.50
31003;DHT22;23051;-6.372;106.786;2024-03-08T10:26:18;29.70;89.50
31003;DHT22;23051;-6.372;106.786;2024-03-08T10:28:22;29.60;89.50
31003;DHT22;23051;-6.372;106.786;2024-03-08T10:30:25;29.60;89.50
31003;DHT22;23051;-6.372;106.786;2024-03-08T10:32:26;29.60;89.50
31003;DHT22;23051;-6.372;106.786;2024-03-08T10:34:28;29.60;89.50
31003;DHT22;23051;-6.372;106.786;2024-03-08T10:36:30;29.60;89.60
31003;DHT22;23051;-6.372;106.786;2024-03-08T10:38:33;29.60;89.60
31003;DHT22;23051;-6.372;106.786;2024-03-08T10:40:36;29.50;89.60
31003;DHT22;23051;-6.372;106.786;2024-03-08T10:42:40;29.50;89.70
31003;DHT22;23051;-6.372;106.786;2024-03-08T10:44:45;29.50;89.90
31003;DHT22;23051;-6.372;106.786;2024-03-08T10:46:59;29.40;90.00
31003;DHT22;23051;-6.372;106.786;2024-03-08T10:49:01;29.30;90.00
31003;DHT22;23051;-6.372;106.786;2024-03-08T10:51:05;29.30;90.10
31003;DHT22;23051;-6.372;106.786;2024-03-08T10:53:07;29.20;90.10
31003;DHT22;23051;-6.372;106.786;2024-03-08T10:55:11;29.20;90.20
31003;DHT22;23051;-6.372;106.786;2024-03-08T10:57:13;29.10;90.20
31003;DHT22;23051;-6.372;106.786;2024-03-08T10:59:15;29.10;90.30
31003;DHT22;23051;-6.372;106.786;2024-03-08T11:01:17;29.20;90.30
31003;DHT22;23051;-6.372;106.786;2024-03-08T11:04:01;29.30;90.10
31003;DHT22;23051;-6.372;106.786;2024-03-08T11:05:46;29.50;89.70
31003;DHT22;23051;-6.372;106.786;2024-03-08T11:07:49;29.80;89.00
31003;DHT22;23051;-6.372;106.786;2024-03-08T11:09:51;30.00;88.50
31003;DHT22;23051;-6.372;106.786;2024-03-08T11:11:52;30.10;88.00
31003;DHT22;23051;-6.372;106.786;2024-03-08T11:13:53;30.30;87.50
31003;DHT22;23051;-6.372;106.786;2024-03-08T11:15:55;30.40;87.20
31003;DHT22;23051;-6.372;106.786;2024-03-08T11:17:58;30.60;86.90
31003;DHT22;23051;-6.372;106.786;2024-03-08T11:19:59;30.70;86.50
31003;DHT22;23051;-6.372;106.786;2024-03-08T11:22:05;30.80;86.30
31003;DHT22;23051;-6.372;106.786;2024-03-08T11:24:12;30.80;86.20
31003;DHT22;23051;-6.372;106.786;2024-03-08T11:26:20;30.90;86.10
31003;DHT22;23051;-6.372;106.786;2024-03-08T11:28:24;30.90;86.00
31003;DHT22;23051;-6.372;106.786;2024-03-08T11:30:27;30.90;85.90
31003;DHT22;23051;-6.372;106.786;2024-03-08T11:32:29;31.00;85.80
31003;DHT22;23051;-6.372;106.786;2024-03-08T11:34:31;31.00;85.60
31003;DHT22;23051;-6.372;106.786;2024-03-08T11:36:33;31.00;85.60
31003;DHT22;23051;-6.372;106.786;2024-03-08T11:38:40;31.00;85.60
31003;DHT22;23051;-6.372;106.786;2024-03-08T11:40:42;31.00;85.60
31003;DHT22;23051;-6.372;106.786;2024-03-08T11:42:44;31.00;85.70
31003;DHT22;23051;-6.372;106.786;2024-03-08T11:44:50;31.00;85.70
31003;DHT22;23051;-6.372;106.786;2024-03-08T11:46:51;31.00;85.70
31003;DHT22;23051;-6.372;106.786;2024-03-08T11:48:54;31.00;85.70
31003;DHT22;23051;-6.372;106.786;2024-03-08T11:51:00;31.00;85.80
31003;DHT22;23051;-6.372;106.786;2024-03-08T11:53:03;31.00;85.80
31003;DHT22;23051;-6.372;106.786;2024-03-08T11:55:04;31.00;85.80
31003;DHT22;23051;-6.372;106.786;2024-03-08T11:57:06;31.00;85.70
31003;DHT22;23051;-6.372;106.786;2024-03-08T11:59:10;30.90;85.80
31003;DHT22;23051;-6.372;106.786;2024-03-08T12:01:13;30.80;86.10
31003;DHT22;23051;-6.372;106.786;2024-03-08T12:03:14;30.70;86.40
31003;DHT22;23051;-6.372;106.786;2024-03-08T12:05:15;30.50;86.70
31003;DHT22;23051;-6.372;106.786;2024-03-08T12:07:17;30.40;86.90
31003;DHT22;23051;-6.372;106.786;2024-03-08T12:09:19;30.30;87.20
31003;DHT22;23051;-6.372;106.786;2024-03-08T12:11:22;30.20;87.60
31003;DHT22;23051;-6.372;106.786;2024-03-08T12:13:24;30.10;87.80
31003;DHT22;23051;-6.372;106.786;2024-03-08T12:15:25;30.10;87.90
31003;DHT22;23051;-6.372;106.786;2024-03-08T12:17:28;30.00;88.00
31003;DHT22;23051;-6.372;106.786;2024-03-08T12:19:29;30.00;88.10
31003;DHT22;23051;-6.372;106.786;2024-03-08T12:21:31;30.00;88.10
31003;DHT22;23051;-6.372;106.786;2024-03-08T12:23:33;30.00;88.20
31003;DHT22;23051;-6.372;106.786;2024-03-08T12:25:34;29.90;88.10
31003;DHT22;23051;-6.372;106.786;2024-03-08T12:27:36;29.90;89.00
31003;DHT22;23051;-6.372;106.786;2024-03-08T12:29:38;29.90;88.10
31003;DHT22;23051;-6.372;106.786;2024-03-08T12:31:40;29.90;88.20